TimeGMT,TemperatureF,Dew PointF,Humidity,Sea Level PressureIn,VisibilityMPH,Wind Direction,Wind SpeedMPH,Gust SpeedMPH,PrecipitationIn,Events,Conditions,WindDirDegrees,DateUTC
12:00 AM,56,52,83,28.96,12,SSE,15.7,,,,Partly Cloudy,150,2011-11-03 00:00:00
12:00 AM,55.4,51.8,88,28.94,6.2,SSE,15.0,-,N/A,,Scattered Clouds,150,2011-11-03 00:00:00
12:30 AM,55.4,51.8,88,28.94,6.2,SSE,19.6,-,N/A,,Scattered Clouds,150,2011-11-03 00:30:00
1:00 AM,55.4,51.8,88,28.94,6.2,SSE,15.0,-,N/A,,Mostly Cloudy,150,2011-11-03 01:00:00
1:30 AM,55.4,51.8,88,28.94,6.2,SSE,15.0,-,N/A,,Scattered Clouds,150,2011-11-03 01:30:00
2:00 AM,55.4,51.8,88,28.94,6.2,SE,15.0,-,N/A,,Scattered Clouds,140,2011-11-03 02:00:00
2:30 AM,55.4,51.8,88,28.94,6.2,SSE,16.1,-,N/A,,Mostly Cloudy,150,2011-11-03 02:30:00
3:00 AM,55.4,51.8,88,28.94,6.2,SSE,17.3,-,N/A,,Mostly Cloudy,150,2011-11-03 03:00:00
3:30 AM,55.4,51.8,88,28.94,6.2,SE,15.0,-,N/A,,Scattered Clouds,140,2011-11-03 03:30:00
4:00 AM,55.4,51.8,88,28.94,6.2,SSE,15.0,-,N/A,,Scattered Clouds,150,2011-11-03 04:00:00
4:30 AM,55.4,51.8,88,28.94,6.2,SSE,13.8,-,N/A,,Scattered Clouds,150,2011-11-03 04:30:00
5:00 AM,55.4,50.0,82,28.94,6.2,SE,15.0,-,N/A,,Scattered Clouds,140,2011-11-03 05:00:00
5:30 AM,53.6,50.0,88,28.91,6.2,SE,16.1,-,N/A,,Scattered Clouds,140,2011-11-03 05:30:00
6:00 AM,54,50,83,28.93,12,SE,15.7,,,,Partly Cloudy,140,2011-11-03 06:00:00
6:00 AM,53.6,50.0,88,28.91,6.2,SE,16.1,-,N/A,,Partly Cloudy,140,2011-11-03 06:00:00
6:30 AM,53.6,50.0,88,28.91,6.2,SE,12.7,-,N/A,,Partly Cloudy,140,2011-11-03 06:30:00
7:00 AM,53.6,50.0,88,28.91,6.2,SE,9.2,-,N/A,,Partly Cloudy,130,2011-11-03 07:00:00
7:30 AM,53.6,50.0,88,28.91,6.2,SE,10.4,-,N/A,,Partly Cloudy,130,2011-11-03 07:30:00
8:00 AM,53.6,51.8,94,28.91,6.2,ESE,6.9,-,N/A,,Mostly Cloudy,110,2011-11-03 08:00:00
8:30 AM,53.6,51.8,94,28.94,6.2,ESE,8.1,-,N/A,,Scattered Clouds,120,2011-11-03 08:30:00
9:00 AM,53.6,51.8,94,28.91,6.2,SE,12.7,-,N/A,,Scattered Clouds,140,2011-11-03 09:00:00
9:30 AM,55.4,51.8,88,28.91,6.2,SSE,10.4,-,N/A,,Mostly Cloudy,150,2011-11-03 09:30:00
10:00 AM,55.4,53.6,94,28.91,6.2,SE,13.8,-,N/A,,Mostly Cloudy,140,2011-11-03 10:00:00
10:30 AM,57.2,53.6,88,28.91,6.2,SE,15.0,-,N/A,,Mostly Cloudy,140,2011-11-03 10:30:00
11:00 AM,59.0,53.6,82,28.91,6.2,SSE,13.8,-,N/A,,Mostly Cloudy,160,2011-11-03 11:00:00
11:30 AM,59.0,53.6,82,28.91,6.2,SSE,16.1,-,N/A,,Mostly Cloudy,160,2011-11-03 11:30:00
12:00 PM,59.0,51.8,77,28.91,6.2,SSE,17.3,-,N/A,,Mostly Cloudy,160,2011-11-03 12:00:00
12:30 PM,60.8,51.8,72,28.91,6.2,SSE,19.6,-,N/A,,Mostly Cloudy,160,2011-11-03 12:30:00
1:00 PM,59.0,50.0,72,28.91,6.2,South,19.6,-,N/A,,Scattered Clouds,170,2011-11-03 13:00:00
1:30 PM,59.0,50.0,72,28.91,6.2,South,18.4,-,N/A,,Mostly Cloudy,170,2011-11-03 13:30:00
2:00 PM,59.0,51.8,77,28.91,6.2,South,17.3,-,N/A,,Scattered Clouds,170,2011-11-03 14:00:00
2:30 PM,59.0,51.8,77,28.91,6.2,South,16.1,-,N/A,Rain,Light Rain Showers,170,2011-11-03 14:30:00
3:00 PM,59.0,51.8,77,28.91,6.2,South,18.4,-,N/A,,Partly Cloudy,170,2011-11-03 15:00:00
3:30 PM,57.2,50.0,77,28.91,6.2,South,12.7,-,N/A,,Scattered Clouds,170,2011-11-03 15:30:00
4:00 PM,57.2,50.0,77,28.94,6.2,South,13.8,-,N/A,,Mostly Cloudy,170,2011-11-03 16:00:00
4:30 PM,57.2,51.8,82,28.94,6.2,South,12.7,-,N/A,Rain,Light Rain Showers,170,2011-11-03 16:30:00
5:00 PM,55.4,50.0,82,28.94,6.2,South,9.2,-,N/A,,Mostly Cloudy,170,2011-11-03 17:00:00
5:30 PM,53.6,50.0,88,28.97,6.2,South,8.1,-,N/A,,Mostly Cloudy,170,2011-11-03 17:30:00
6:00 PM,54,50,80,28.99,9,South,8.9,,,,Partly Cloudy,170,2011-11-03 18:00:00
6:00 PM,53.6,50.0,88,28.97,6.2,South,9.2,-,N/A,,Mostly Cloudy,170,2011-11-03 18:00:00
6:30 PM,51.8,50.0,94,29.00,6.2,South,6.9,-,N/A,,Mostly Cloudy,170,2011-11-03 18:30:00
7:00 PM,53.6,50.0,88,29.00,6.2,SSW,6.9,-,N/A,,Mostly Cloudy,200,2011-11-03 19:00:00
7:30 PM,51.8,50.0,94,29.03,6.2,SSW,6.9,-,N/A,,Mostly Cloudy,210,2011-11-03 19:30:00
8:00 PM,51.8,50.0,94,29.03,6.2,SW,5.8,-,N/A,,Mostly Cloudy,220,2011-11-03 20:00:00
8:30 PM,51.8,50.0,94,29.03,6.2,SW,8.1,-,N/A,,Light Drizzle,230,2011-11-03 20:30:00
9:00 PM,51.8,50.0,94,29.06,6.2,WSW,6.9,-,N/A,,Mostly Cloudy,240,2011-11-03 21:00:00
9:30 PM,50.0,48.2,94,29.06,6.2,WSW,5.8,-,N/A,,Mostly Cloudy,240,2011-11-03 21:30:00
10:00 PM,50.0,48.2,94,29.06,6.2,SW,6.9,-,N/A,,Mostly Cloudy,220,2011-11-03 22:00:00
10:30 PM,50.0,48.2,94,29.09,6.2,South,4.6,-,N/A,,Scattered Clouds,190,2011-11-03 22:30:00
11:00 PM,50.0,48.2,94,29.09,6.2,South,4.6,-,N/A,,Mostly Cloudy,180,2011-11-03 23:00:00
11:30 PM,48.2,46.4,93,29.09,6.2,SSW,4.6,-,N/A,,Scattered Clouds,200,2011-11-03 23:30:00